Time;durP1;ratioP1;P1;durP2;ratioP2;P2;SDS_P1;SDS_P2;PMS_P1;PMS_P2;Temp;Humidity;BMP_temperature;BMP_pressure;BME280_temperature;BME280_humidity;BME280_pressure;Samples;Min_cycle;Max_cycle;Signal;HPM_P1;HPM_P2
2021/05/31 00:00:32;;;;;;;15.23;8.55;;;;;;;14.28;93.85;102022.50;5019222;28;20088;-71
2021/05/31 00:02:57;;;;;;;16.20;9.45;;;;;;;14.09;94.33;102028.50;5011749;28;20049;-71
2021/05/31 00:05:26;;;;;;;19.92;8.98;;;;;;;14.24;94.12;102016.16;5008915;28;20042;-72
2021/05/31 00:07:54;;;;;;;17.98;9.02;;;;;;;14.21;93.87;102020.34;5011917;28;20056;-72
2021/05/31 00:10:20;;;;;;;20.20;9.25;;;;;;;13.88;95.79;102019.78;5007030;28;20046;-72
2021/05/31 00:12:46;;;;;;;18.05;10.30;;;;;;;13.40;98.43;102011.75;5011020;28;20038;-71
2021/05/31 00:15:12;;;;;;;17.33;9.88;;;;;;;13.57;98.12;102008.78;5011176;28;20348;-71
2021/05/31 00:17:38;;;;;;;17.30;9.23;;;;;;;13.47;97.83;102012.75;5008280;28;20040;-72
2021/05/31 00:20:07;;;;;;;18.13;10.00;;;;;;;13.51;98.36;102013.66;5010614;28;20034;-71
2021/05/31 00:22:32;;;;;;;15.07;9.35;;;;;;;13.66;97.55;102012.19;5022599;28;20061;-72
2021/05/31 00:24:58;;;;;;;16.70;9.30;;;;;;;13.29;98.20;102000.63;5008419;28;20029;-71
2021/05/31 00:27:23;;;;;;;19.92;9.20;;;;;;;13.22;98.64;101999.59;5009734;28;20048;-71
2021/05/31 00:29:49;;;;;;;14.93;8.77;;;;;;;13.04;99.54;102004.44;5012795;28;20402;-71
2021/05/31 00:32:14;;;;;;;15.43;8.82;;;;;;;13.10;99.69;102000.41;5012056;28;20725;-71
2021/05/31 00:34:41;;;;;;;20.33;9.68;;;;;;;12.99;99.78;102001.16;5012332;28;20030;-71
2021/05/31 00:37:06;;;;;;;21.45;10.30;;;;;;;13.01;100.00;102004.28;5012796;28;20034;-71
2021/05/31 00:39:32;;;;;;;17.85;9.43;;;;;;;12.99;100.00;101998.44;5013963;28;20521;-71
2021/05/31 00:41:59;;;;;;;17.10;9.57;;;;;;;13.03;100.00;101989.34;5011658;28;20032;-71
2021/05/31 00:44:25;;;;;;;17.85;9.70;;;;;;;12.97;99.84;101990.66;5017111;28;20064;-71
2021/05/31 00:46:52;;;;;;;16.45;9.43;;;;;;;12.86;100.00;101999.53;5006997;28;20025;-71
2021/05/31 00:49:25;;;;;;;15.75;9.10;;;;;;;12.95;100.00;101990.19;5009957;28;20707;-71
2021/05/31 00:51:51;;;;;;;17.08;9.93;;;;;;;12.80;100.00;101996.28;5008939;28;20037;-71
2021/05/31 00:54:20;;;;;;;19.05;10.05;;;;;;;12.68;100.00;101997.06;5011982;28;20042;-71
2021/05/31 00:56:46;;;;;;;19.52;9.13;;;;;;;12.76;100.00;101998.06;5008546;28;20108;-72
2021/05/31 00:59:13;;;;;;;21.95;9.90;;;;;;;12.64;100.00;101993.44;5013597;28;20038;-71
2021/05/31 01:01:39;;;;;;;18.38;9.60;;;;;;;12.64;100.00;101993.44;5000699;28;20026;-71
2021/05/31 01:04:05;;;;;;;17.63;10.23;;;;;;;12.60;100.00;102005.28;5013465;28;20041;-71
2021/05/31 01:06:33;;;;;;;18.85;9.77;;;;;;;12.63;100.00;101991.88;5011233;28;20057;-72
2021/05/31 01:09:12;;;;;;;19.00;9.10;;;;;;;12.61;100.00;102001.44;5005192;28;20053;-71
2021/05/31 01:11:59;;;;;;;20.35;10.85;;;;;;;12.51;100.00;101991.84;5000564;28;20167;-71
2021/05/31 01:14:24;;;;;;;20.30;10.65;;;;;;;12.41;100.00;101999.56;5018234;28;20048;-72
2021/05/31 01:16:57;;;;;;;19.05;10.35;;;;;;;12.54;100.00;101990.38;5006862;28;20113;-71
2021/05/31 01:19:48;;;;;;;16.88;10.15;;;;;;;12.48;100.00;101989.03;5013984;28;20114;-71
2021/05/31 01:22:14;;;;;;;;;;;;;;;12.34;100.00;101989.31;5011183;28;20045;-71
2021/05/31 01:24:49;;;;;;;18.73;9.77;;;;;;;12.35;100.00;101995.53;5012037;28;20347;-71
2021/05/31 01:27:21;;;;;;;19.70;10.35;;;;;;;12.30;100.00;101996.50;5007047;28;20039;-71
2021/05/31 01:30:00;;;;;;;16.55;9.88;;;;;;;12.24;100.00;102002.44;5016720;28;20061;-71
2021/05/31 01:32:33;;;;;;;17.75;9.98;;;;;;;12.19;100.00;101992.66;5012767;28;20037;-71
2021/05/31 01:35:03;;;;;;;18.52;10.07;;;;;;;12.23;100.00;101995.47;5016077;28;20088;-71
2021/05/31 01:37:32;;;;;;;19.17;10.60;;;;;;;12.21;100.00;101990.41;5002325;28;20034;-71
2021/05/31 01:40:04;;;;;;;20.20;10.27;;;;;;;12.18;100.00;101985.66;5006926;28;20112;-71
2021/05/31 01:42:29;;;;;;;;;;;;;;;12.20;100.00;101993.41;5011172;28;20034;-71
2021/05/31 01:44:55;;;;;;;21.33;10.05;;;;;;;12.19;100.00;101989.16;5022813;28;19913;-71
2021/05/31 01:47:21;;;;;;;16.95;10.13;;;;;;;12.26;100.00;101992.09;5010443;28;20068;-71
2021/05/31 01:49:48;;;;;;;20.88;10.95;;;;;;;12.23;100.00;101990.84;5006918;28;20053;-71
2021/05/31 01:52:15;;;;;;;19.20;10.38;;;;;;;12.17;100.00;101983.28;5018400;28;20046;-72
2021/05/31 01:54:41;;;;;;;19.58;10.90;;;;;;;12.05;100.00;101992.13;5010328;28;20037;-71
2021/05/31 01:57:07;;;;;;;18.70;10.45;;;;;;;12.08;100.00;101988.75;5005876;28;20054;-72
2021/05/31 01:59:34;;;;;;;21.02;10.50;;;;;;;11.93;100.00;101989.38;5010367;28;20080;-71
2021/05/31 02:01:59;;;;;;;21.15;10.95;;;;;;;11.98;100.00;101981.06;5018727;28;20042;-71
2021/05/31 02:04:25;;;;;;;21.15;10.65;;;;;;;11.87;100.00;101990.69;5012985;28;20088;-71
2021/05/31 02:06:52;;;;;;;19.17;10.27;;;;;;;11.89;100.00;101985.75;5015659;28;20033;-71
2021/05/31 02:09:18;;;;;;;18.40;10.75;;;;;;;11.88;100.00;101986.91;5016501;28;20361;-72
2021/05/31 02:12:12;;;;;;;22.75;11.10;;;;;;;11.86;100.00;101978.34;5007155;28;20031;-71
2021/05/31 02:14:46;;;;;;;19.85;11.15;;;;;;;11.80;100.00;101976.94;5019403;28;20367;-71
2021/05/31 02:17:31;;;;;;;23.33;11.40;;;;;;;11.91;100.00;101980.81;5004554;28;20029;-73
2021/05/31 02:20:06;;;;;;;21.35;10.82;;;;;;;11.85;100.00;101976.75;5012138;28;20037;-72
2021/05/31 02:22:35;;;;;;;18.40;10.82;;;;;;;11.91;100.00;101977.31;5026081;28;20029;-72
2021/05/31 02:25:01;;;;;;;20.30;10.95;;;;;;;11.77;100.00;101972.19;5013621;28;20087;-72
2021/05/31 02:27:28;;;;;;;20.88;10.20;;;;;;;11.71;100.00;101968.91;5011263;28;20025;-73
2021/05/31 02:29:54;;;;;;;22.58;10.65;;;;;;;11.65;100.00;101978.31;5012878;28;20121;-72
2021/05/31 02:32:19;;;;;;;20.77;10.30;;;;;;;11.58;100.00;101975.34;5026728;28;20124;-72
2021/05/31 02:34:45;;;;;;;19.73;10.27;;;;;;;11.46;100.00;101974.47;5016127;28;20049;-72
2021/05/31 02:37:13;;;;;;;19.95;10.15;;;;;;;11.44;100.00;101979.41;5012460;28;20029;-72
2021/05/31 02:39:39;;;;;;;21.75;10.77;;;;;;;11.26;100.00;101976.03;5006247;28;20034;-73
2021/05/31 02:42:05;;;;;;;17.38;10.07;;;;;;;11.49;100.00;101976.50;5006612;28;20028;-72
2021/05/31 02:44:30;;;;;;;22.13;10.93;;;;;;;11.33;100.00;101976.28;5020257;28;20030;-72
2021/05/31 02:46:56;;;;;;;20.40;10.82;;;;;;;11.31;100.00;101972.34;5005770;28;20505;-72
2021/05/31 02:49:21;;;;;;;17.85;10.57;;;;;;;11.34;100.00;101967.06;5005700;28;20100;-72
2021/05/31 02:51:47;;;;;;;19.25;11.18;;;;;;;11.48;100.00;101972.22;5013978;28;20026;-72
2021/05/31 02:54:13;;;;;;;17.10;10.02;;;;;;;11.38;100.00;101972.63;5021736;28;20397;-72
2021/05/31 02:56:39;;;;;;;21.10;10.85;;;;;;;11.41;100.00;101977.34;5008145;28;20041;-72
2021/05/31 02:59:05;;;;;;;18.17;10.32;;;;;;;11.36;100.00;101972.16;5009888;28;20033;-72
2021/05/31 03:01:30;;;;;;;21.80;10.73;;;;;;;11.50;100.00;101981.56;5015012;28;20079;-72
2021/05/31 03:03:56;;;;;;;17.45;10.30;;;;;;;11.23;100.00;101978.56;5009945;28;20075;-72
2021/05/31 03:06:21;;;;;;;21.35;10.70;;;;;;;11.08;100.00;101979.13;5010712;28;20371;-72
2021/05/31 03:08:47;;;;;;;18.83;10.82;;;;;;;11.09;100.00;101983.41;5002485;28;20034;-72
2021/05/31 03:11:12;;;;;;;20.05;10.88;;;;;;;10.98;100.00;101969.50;5004700;28;20034;-72
2021/05/31 03:13:38;;;;;;;22.13;10.75;;;;;;;11.05;100.00;101982.50;5016204;28;20379;-72
2021/05/31 03:16:03;;;;;;;18.95;10.43;;;;;;;11.08;100.00;101974.53;5011270;28;20044;-72
2021/05/31 03:18:29;;;;;;;16.88;9.93;;;;;;;11.10;100.00;101982.28;5007079;28;20038;-72
2021/05/31 03:20:55;;;;;;;20.98;10.95;;;;;;;11.25;100.00;101979.84;4996879;28;20479;-72
2021/05/31 03:23:20;;;;;;;19.73;10.20;;;;;;;11.09;100.00;101972.63;5012382;28;20489;-72
2021/05/31 03:25:46;;;;;;;20.70;11.32;;;;;;;11.07;100.00;101981.03;5012227;28;20124;-72
2021/05/31 03:28:11;;;;;;;19.90;10.45;;;;;;;11.01;100.00;101978.84;5008721;28;20041;-72
2021/05/31 03:30:37;;;;;;;21.48;11.30;;;;;;;11.16;100.00;101984.50;5014690;28;20112;-72
2021/05/31 03:33:03;;;;;;;20.00;10.70;;;;;;;11.15;100.00;101984.81;5016574;28;20061;-72
2021/05/31 03:35:28;;;;;;;22.55;12.20;;;;;;;11.11;100.00;101981.19;5014527;28;20525;-72
2021/05/31 03:37:54;;;;;;;19.30;11.18;;;;;;;10.94;100.00;101986.66;5001331;28;20061;-72
2021/05/31 03:40:21;;;;;;;21.33;11.25;;;;;;;11.16;100.00;101984.50;5011064;28;20136;-72
2021/05/31 03:42:51;;;;;;;23.42;11.30;;;;;;;11.20;100.00;101985.41;5015555;28;20462;-72
2021/05/31 03:45:20;;;;;;;22.83;10.70;;;;;;;10.98;100.00;101984.88;5016346;28;20044;-72
2021/05/31 03:47:46;;;;;;;21.63;11.27;;;;;;;11.19;100.00;101985.75;5002536;28;20041;-72
2021/05/31 03:50:12;;;;;;;21.27;11.15;;;;;;;11.19;100.00;101980.38;5007955;28;20087;-72
2021/05/31 03:52:38;;;;;;;20.15;11.05;;;;;;;11.07;100.00;101978.34;5018168;28;20037;-72
2021/05/31 03:55:06;;;;;;;19.00;11.13;;;;;;;11.15;100.00;101976.72;5004877;28;20100;-72
2021/05/31 03:57:32;;;;;;;20.85;11.48;;;;;;;11.18;100.00;101978.75;5010564;28;20495;-72
2021/05/31 03:59:57;;;;;;;22.38;11.00;;;;;;;11.12;100.00;101974.66;5012449;28;20372;-72
2021/05/31 04:02:23;;;;;;;18.35;10.82;;;;;;;11.16;100.00;101981.78;5017151;28;20040;-72
2021/05/31 04:04:52;;;;;;;21.73;10.57;;;;;;;11.32;100.00;101973.94;5009450;28;20057;-72
2021/05/31 04:12:49;;;;;;;20.92;11.20;;;;;;;11.51;100.00;101982.38;5005124;28;20754;-72
2021/05/31 04:15:15;;;;;;;20.65;11.23;;;;;;;11.49;100.00;101974.63;5018422;28;20112;-72
2021/05/31 04:17:40;;;;;;;23.60;10.55;;;;;;;11.69;100.00;101973.84;5011483;28;20045;-72
2021/05/31 04:20:07;;;;;;;16.08;9.98;;;;;;;11.73;100.00;101976.66;5008638;28;20044;-72
2021/05/31 04:22:32;;;;;;;17.95;10.25;;;;;;;11.62;100.00;101978.16;5011142;28;20084;-72
2021/05/31 04:24:58;;;;;;;17.70;9.20;;;;;;;11.62;100.00;101973.56;5015627;28;20497;-72
2021/05/31 04:27:23;;;;;;;18.33;10.55;;;;;;;11.58;100.00;101980.72;5012923;28;20115;-72
2021/05/31 04:29:50;;;;;;;17.15;9.45;;;;;;;11.71;100.00;101982.41;5001464;28;20045;-72
2021/05/31 04:32:17;;;;;;;18.90;10.05;;;;;;;11.63;100.00;101977.81;5013442;28;20040;-72
2021/05/31 04:34:42;;;;;;;17.98;10.35;;;;;;;11.62;100.00;101976.25;5013202;28;20100;-72
2021/05/31 04:37:08;;;;;;;19.50;10.70;;;;;;;11.59;100.00;101974.19;5011045;28;20081;-72
2021/05/31 04:39:33;;;;;;;17.73;10.27;;;;;;;11.56;100.00;101963.28;5006141;28;20039;-72
2021/05/31 04:41:59;;;;;;;19.65;9.98;;;;;;;11.76;100.00;101962.53;5014419;28;20121;-72
2021/05/31 04:44:24;;;;;;;17.73;9.75;;;;;;;11.87;100.00;101971.00;5005825;28;20104;-72
2021/05/31 04:46:51;;;;;;;16.38;9.00;;;;;;;12.05;100.00;101959.75;5009587;28;20104;-72
2021/05/31 04:52:05;;;;;;;16.58;8.43;;;;;;;12.06;100.00;101961.31;4990889;28;20520;-73
2021/05/31 04:54:31;;;;;;;14.98;8.70;;;;;;;12.13;100.00;101966.97;4988550;28;20039;-73
2021/05/31 04:56:57;;;;;;;15.25;8.30;;;;;;;12.32;100.00;101959.16;4984792;28;20391;-74
2021/05/31 04:59:22;;;;;;;13.15;8.00;;;;;;;12.45;100.00;101970.75;4992396;28;20549;-73
2021/05/31 05:01:48;;;;;;;14.27;7.45;;;;;;;12.41;100.00;101969.84;4991332;28;20450;-73
2021/05/31 05:04:13;;;;;;;12.93;7.18;;;;;;;12.63;98.24;101961.34;4985803;28;20053;-73
2021/05/31 05:06:39;;;;;;;13.68;7.00;;;;;;;12.59;95.74;101965.84;4991698;28;20045;-74
2021/05/31 05:09:05;;;;;;;13.23;6.03;;;;;;;13.02;93.28;101965.31;4989617;28;20058;-73
2021/05/31 05:11:30;;;;;;;10.57;6.30;;;;;;;13.47;91.53;101974.88;4987766;28;20471;-73
2021/05/31 05:13:55;;;;;;;10.05;5.72;;;;;;;14.23;90.05;101973.94;4988040;28;20526;-73
2021/05/31 05:16:21;;;;;;;8.68;5.15;;;;;;;14.63;84.09;101968.44;4989640;28;20034;-74
2021/05/31 05:18:49;;;;;;;9.45;5.35;;;;;;;15.27;80.79;101966.09;4989250;28;20520;-73
2021/05/31 05:21:18;;;;;;;11.38;5.05;;;;;;;15.12;77.56;101958.75;4989786;28;20550;-73
2021/05/31 05:23:47;;;;;;;7.43;4.47;;;;;;;15.70;79.66;101956.97;4991161;28;20480;-73
2021/05/31 05:26:14;;;;;;;7.57;5.03;;;;;;;16.48;76.91;101960.03;4989827;28;20038;-73
2021/05/31 05:28:40;;;;;;;7.20;3.92;;;;;;;16.58;75.28;101962.16;4983470;28;20043;-73
2021/05/31 05:31:10;;;;;;;8.20;4.18;;;;;;;16.97;71.32;101962.78;4981851;28;20050;-73
2021/05/31 05:33:37;;;;;;;5.10;3.47;;;;;;;16.88;71.98;101952.16;4984628;28;20034;-74
2021/05/31 05:46:26;;;;;;;4.03;3.20;;;;;;;18.13;65.22;101972.53;4989305;28;20497;-74
2021/05/31 05:48:52;;;;;;;5.13;2.63;;;;;;;18.10;64.30;101970.53;5003076;28;20026;-73
2021/05/31 05:51:20;;;;;;;7.88;2.95;;;;;;;17.38;60.89;101971.97;4989642;28;20058;-73
2021/05/31 05:53:46;;;;;;;3.95;2.72;;;;;;;17.99;63.72;101973.16;4995592;28;20037;-73
2021/05/31 05:56:18;;;;;;;5.30;2.80;;;;;;;17.85;59.57;101964.81;4994565;28;20157;-73
2021/05/31 05:58:44;;;;;;;6.18;3.00;;;;;;;18.07;62.72;101968.56;4989967;28;20027;-74
2021/05/31 06:01:11;;;;;;;5.30;2.83;;;;;;;18.12;60.46;101972.91;4986927;28;20030;-74
2021/05/31 06:03:38;;;;;;;4.05;2.53;;;;;;;17.87;58.63;101967.16;4986062;28;20027;-73
2021/05/31 06:06:05;;;;;;;4.38;2.20;;;;;;;18.03;56.33;101974.00;4993396;28;20034;-73
2021/05/31 06:08:31;;;;;;;2.95;2.17;;;;;;;18.01;59.97;101970.06;5006850;28;20030;-73
2021/05/31 06:10:57;;;;;;;2.90;2.30;;;;;;;18.14;55.24;101976.06;4990824;28;20080;-74
2021/05/31 06:13:24;;;;;;;4.72;2.13;;;;;;;18.25;57.22;101974.22;4994660;28;20386;-74
2021/05/31 06:15:53;;;;;;;4.60;2.40;;;;;;;17.70;56.14;101976.69;4991124;28;20582;-75
2021/05/31 06:18:19;;;;;;;2.90;2.08;;;;;;;17.09;53.55;101963.38;4999988;28;20026;-73
2021/05/31 06:20:45;;;;;;;2.65;2.05;;;;;;;17.35;56.18;101962.56;4988113;28;20030;-74
2021/05/31 06:23:12;;;;;;;3.60;1.80;;;;;;;17.58;57.57;101963.31;5003239;28;20510;-74
2021/05/31 06:25:38;;;;;;;1.85;1.67;;;;;;;18.24;53.51;101969.91;4996146;28;20030;-73
2021/05/31 06:28:06;;;;;;;2.25;1.50;;;;;;;18.66;51.35;101960.22;4994266;28;20046;-72
2021/05/31 06:30:32;;;;;;;2.70;1.77;;;;;;;18.53;50.08;101966.31;4990394;28;20035;-71
2021/05/31 06:32:58;;;;;;;2.67;1.65;;;;;;;18.88;49.21;101970.16;4993385;28;20030;-72
2021/05/31 06:35:25;;;;;;;3.22;1.75;;;;;;;18.80;48.39;101968.53;4988337;28;20053;-72
2021/05/31 06:37:50;;;;;;;3.40;1.70;;;;;;;17.82;51.33;101971.03;4995258;28;20466;-72
2021/05/31 06:40:16;;;;;;;2.22;1.55;;;;;;;18.04;49.91;101964.63;4988935;28;20035;-72
2021/05/31 06:42:44;;;;;;;3.70;1.52;;;;;;;18.33;48.98;101962.22;4990989;28;20034;-72
2021/05/31 06:45:13;;;;;;;3.42;1.58;;;;;;;18.95;47.73;101960.44;4998177;28;20517;-72
2021/05/31 06:47:38;;;;;;;4.95;1.88;;;;;;;18.99;50.27;101972.94;4990926;28;20027;-72
2021/05/31 06:50:06;;;;;;;2.22;1.50;;;;;;;19.39;49.09;101961.94;4985580;28;20056;-72
2021/05/31 06:52:32;;;;;;;3.28;1.80;;;;;;;19.65;47.58;101964.41;4989569;28;20033;-72
2021/05/31 06:55:00;;;;;;;3.10;1.55;;;;;;;19.63;47.34;101971.41;4985522;28;20769;-72
2021/05/31 06:57:26;;;;;;;4.28;1.40;;;;;;;19.35;46.71;101977.53;4991940;28;20039;-72
2021/05/31 06:59:51;;;;;;;2.70;1.52;;;;;;;19.39;47.17;101972.88;4990264;28;20109;-72
2021/05/31 07:02:17;;;;;;;2.60;1.33;;;;;;;19.92;45.01;101975.81;4992294;28;20048;-72
2021/05/31 07:04:43;;;;;;;3.45;1.42;;;;;;;20.03;45.84;101981.34;4989035;28;20042;-73
2021/05/31 07:07:08;;;;;;;4.15;1.63;;;;;;;19.59;46.10;101965.13;4987706;28;20058;-72
2021/05/31 07:09:34;;;;;;;3.97;1.45;;;;;;;19.93;45.91;101971.94;4987326;28;20097;-72
2021/05/31 07:12:00;;;;;;;1.70;1.30;;;;;;;20.32;45.01;101972.06;4989675;28;20038;-71
2021/05/31 07:14:33;;;;;;;2.00;1.30;;;;;;;20.36;42.56;101978.31;4991307;28;20376;-72
2021/05/31 07:17:00;;;;;;;2.58;1.15;;;;;;;20.56;42.57;101969.34;4991613;28;20038;-72
2021/05/31 07:19:26;;;;;;;3.28;1.83;;;;;;;20.86;41.81;101971.69;4981260;28;20025;-72
2021/05/31 07:21:52;;;;;;;2.95;1.40;;;;;;;21.18;41.70;101969.72;4991078;28;20118;-72
2021/05/31 07:24:18;;;;;;;2.70;0.93;;;;;;;21.33;41.31;101974.00;4989200;28;20491;-72
2021/05/31 07:26:43;;;;;;;2.65;1.20;;;;;;;20.95;39.39;101972.06;4982965;28;20030;-72
2021/05/31 07:29:09;;;;;;;2.85;1.45;;;;;;;20.68;40.28;101962.69;4979886;28;20109;-72
2021/05/31 07:31:35;;;;;;;2.55;1.60;;;;;;;20.88;42.02;101966.63;4981276;28;20550;-72
2021/05/31 07:34:00;;;;;;;2.55;1.48;;;;;;;21.05;40.93;101965.06;4978548;28;20667;-72
2021/05/31 07:36:26;;;;;;;3.25;1.23;;;;;;;21.38;42.76;101961.84;4976511;28;20038;-72
2021/05/31 07:38:51;;;;;;;2.35;1.50;;;;;;;21.46;40.27;101964.19;5002439;28;20026;-72
2021/05/31 07:41:18;;;;;;;1.67;1.27;;;;;;;21.23;41.75;101960.34;4977230;28;20542;-72
2021/05/31 07:43:44;;;;;;;3.30;1.13;;;;;;;21.13;42.38;101958.38;4980015;28;20061;-72
2021/05/31 07:46:11;;;;;;;2.70;1.30;;;;;;;21.63;42.07;101950.78;4989861;28;20046;-72
2021/05/31 07:48:38;;;;;;;4.63;1.50;;;;;;;21.82;41.84;101951.13;4991053;28;20036;-72
2021/05/31 07:51:15;;;;;;;4.00;1.23;;;;;;;22.08;41.68;101949.81;4986571;28;20038;-72
2021/05/31 07:53:45;;;;;;;4.00;1.33;;;;;;;22.24;41.19;101955.59;4979883;28;20034;-73
2021/05/31 07:56:12;;;;;;;2.05;1.35;;;;;;;22.30;40.66;101959.47;4988500;28;20116;-73
2021/05/31 07:58:38;;;;;;;4.53;1.50;;;;;;;22.18;40.90;101952.47;4984299;28;20030;-72
2021/05/31 08:01:04;;;;;;;3.08;1.30;;;;;;;22.52;41.79;101947.16;4985614;28;20030;-72
2021/05/31 08:03:30;;;;;;;2.50;1.20;;;;;;;22.67;40.88;101956.06;4989399;28;20468;-73
2021/05/31 08:05:57;;;;;;;1.95;1.20;;;;;;;22.65;38.84;101951.00;4988267;28;20034;-72
2021/05/31 08:08:22;;;;;;;1.77;1.20;;;;;;;22.79;40.45;101947.34;4989158;28;20038;-72
2021/05/31 08:10:48;;;;;;;4.28;1.40;;;;;;;22.93;39.81;101948.00;4983089;28;20383;-73
2021/05/31 08:13:14;;;;;;;2.05;1.30;;;;;;;22.70;39.39;101939.59;4985657;28;20450;-73
2021/05/31 08:15:39;;;;;;;3.13;1.20;;;;;;;23.00;39.88;101945.19;4988659;28;20038;-74
2021/05/31 08:18:05;;;;;;;2.25;1.10;;;;;;;23.11;37.79;101943.09;4987680;28;20053;-74
2021/05/31 08:20:34;;;;;;;4.45;1.25;;;;;;;22.95;36.24;101945.63;4985017;28;20661;-75
2021/05/31 08:22:59;;;;;;;1.50;1.10;;;;;;;23.14;36.54;101947.78;4987150;28;20035;-74
2021/05/31 08:25:25;;;;;;;1.70;1.20;;;;;;;23.43;38.85;101942.00;4981128;28;20034;-74
2021/05/31 08:27:51;;;;;;;4.30;1.17;;;;;;;23.55;37.50;101939.50;4978165;28;20038;-74
2021/05/31 08:30:17;;;;;;;3.45;1.42;;;;;;;23.69;37.17;101944.81;4998081;28;20571;-74
2021/05/31 08:32:42;;;;;;;2.55;1.20;;;;;;;23.71;38.04;101942.41;4986976;28;20031;-74
2021/05/31 08:35:08;;;;;;;1.98;1.10;;;;;;;23.73;37.98;101931.03;4983193;28;20038;-76
2021/05/31 08:37:34;;;;;;;2.97;1.27;;;;;;;23.83;38.63;101935.59;4980998;28;20033;-74
2021/05/31 08:39:59;;;;;;;2.65;1.10;;;;;;;23.71;34.55;101941.66;4976866;28;20038;-74
2021/05/31 08:42:25;;;;;;;2.92;1.33;;;;;;;23.67;37.25;101924.41;4977131;28;20046;-73
2021/05/31 08:44:51;;;;;;;1.92;1.05;;;;;;;23.89;36.56;101931.19;4982040;28;20023;-74
2021/05/31 08:47:16;;;;;;;1.80;1.05;;;;;;;23.86;35.17;101932.03;4988851;28;20034;-74
2021/05/31 08:49:42;;;;;;;1.88;1.25;;;;;;;24.02;37.46;101923.97;4988683;28;20030;-73
2021/05/31 08:52:07;;;;;;;2.35;1.52;;;;;;;24.16;36.98;101929.25;5002983;28;20073;-73
2021/05/31 08:54:33;;;;;;;3.47;1.15;;;;;;;24.34;38.70;101913.22;4986654;28;20038;-73
2021/05/31 08:57:00;;;;;;;1.85;1.25;;;;;;;24.54;38.07;101922.34;4983907;28;20042;-74
2021/05/31 08:59:25;;;;;;;2.88;1.33;;;;;;;24.46;37.67;101920.91;4983573;28;20117;-75
2021/05/31 09:01:51;;;;;;;1.52;1.40;;;;;;;24.63;38.38;101910.78;4979482;28;20172;-74
2021/05/31 09:04:17;;;;;;;1.35;1.08;;;;;;;24.71;37.19;101918.50;4975508;28;20045;-74
2021/05/31 09:06:56;;;;;;;4.40;1.45;;;;;;;24.52;37.91;101910.97;4978804;28;20022;-73
2021/05/31 09:09:37;;;;;;;1.45;1.27;;;;;;;24.85;37.71;101912.75;4976200;28;20068;-73
2021/05/31 09:12:05;;;;;;;3.45;1.63;;;;;;;24.79;37.29;101906.19;4992418;28;20042;-74
2021/05/31 09:14:31;;;;;;;2.80;1.55;;;;;;;25.06;38.19;101903.31;4977841;28;20042;-74
2021/05/31 09:16:56;;;;;;;2.35;1.90;;;;;;;25.07;37.28;101907.63;4984209;28;20053;-74
2021/05/31 09:19:22;;;;;;;4.03;1.80;;;;;;;24.81;37.94;101912.06;4982997;28;20034;-73
2021/05/31 09:21:49;;;;;;;5.63;1.92;;;;;;;24.87;39.17;101909.59;4979414;28;20093;-74
2021/05/31 09:24:19;;;;;;;3.83;1.48;;;;;;;25.01;38.58;101909.31;4994601;28;20046;-74
2021/05/31 09:26:52;;;;;;;2.92;1.60;;;;;;;25.13;37.48;101905.16;4974426;28;20406;-74
2021/05/31 09:29:19;;;;;;;5.30;1.70;;;;;;;24.90;38.32;101906.78;4976910;28;20407;-74
2021/05/31 09:31:56;;;;;;;1.60;1.48;;;;;;;25.17;39.55;101912.16;4979446;28;20047;-74
2021/05/31 09:34:22;;;;;;;5.38;1.92;;;;;;;25.46;39.68;101912.38;4980293;28;20030;-74
2021/05/31 09:36:56;;;;;;;2.85;1.80;;;;;;;25.47;39.84;101911.19;4987575;28;20103;-74
2021/05/31 09:39:36;;;;;;;2.08;1.88;;;;;;;25.56;40.73;101914.16;4981926;28;20030;-74
2021/05/31 09:42:12;;;;;;;3.40;2.30;;;;;;;25.56;39.96;101897.59;4979985;28;20076;-74
2021/05/31 09:44:38;;;;;;;3.53;2.00;;;;;;;25.79;40.29;101912.06;4976793;28;20018;-74
2021/05/31 09:47:03;;;;;;;5.15;2.40;;;;;;;25.78;41.53;101907.72;4975316;28;20395;-74
2021/05/31 09:49:29;;;;;;;4.18;2.40;;;;;;;26.12;40.30;101901.09;4985806;28;20034;-74
2021/05/31 09:52:21;;;;;;;4.88;2.33;;;;;;;26.36;40.71;101905.25;4978857;28;20042;-73
2021/05/31 09:54:51;;;;;;;4.60;1.95;;;;;;;26.33;40.59;101906.09;4978531;28;20042;-73
2021/05/31 09:57:27;;;;;;;4.45;2.20;;;;;;;26.25;38.71;101888.91;4976710;28;20037;-73
2021/05/31 10:00:10;;;;;;;2.90;2.20;;;;;;;26.10;40.44;101884.16;4974081;28;20508;-73
2021/05/31 10:10:44;;;;;;;2.92;1.65;;;;;;;26.71;40.47;101880.25;4945621;29;20047;-71
2021/05/31 10:13:10;;;;;;;3.15;1.63;;;;;;;26.65;38.35;101873.66;4946046;28;20626;-72
2021/05/31 10:15:42;;;;;;;2.65;2.00;;;;;;;26.81;39.08;101872.88;4945082;28;20038;-72
2021/05/31 10:18:10;;;;;;;2.60;2.08;;;;;;;26.82;39.46;101860.63;4940355;28;20035;-72
2021/05/31 10:20:37;;;;;;;2.72;1.77;;;;;;;27.01;38.38;101867.19;4940107;29;20552;-73
2021/05/31 10:23:05;;;;;;;6.40;2.20;;;;;;;26.97;37.99;101870.06;4943680;28;20035;-72
2021/05/31 10:25:32;;;;;;;2.88;1.88;;;;;;;27.04;36.99;101860.81;4942239;28;20055;-72
2021/05/31 10:28:06;;;;;;;4.28;1.90;;;;;;;26.54;36.43;101861.31;4932233;29;20423;-73
2021/05/31 10:30:52;;;;;;;2.47;1.80;;;;;;;26.98;40.03;101863.34;4941006;28;20043;-72
2021/05/31 10:33:19;;;;;;;2.88;1.85;;;;;;;27.23;37.55;101857.88;4943240;28;20043;-72
2021/05/31 10:35:46;;;;;;;4.05;1.80;;;;;;;27.27;36.71;101849.47;4941940;29;20078;-71
2021/05/31 10:38:14;;;;;;;4.50;2.10;;;;;;;27.14;38.80;101845.91;4948350;28;20109;-71
2021/05/31 10:40:44;;;;;;;3.95;2.00;;;;;;;27.52;40.23;101847.53;4947873;28;20043;-72
2021/05/31 10:43:12;;;;;;;2.10;1.65;;;;;;;27.35;36.99;101854.34;4948176;28;20085;-72
2021/05/31 10:45:38;;;;;;;4.40;1.85;;;;;;;27.41;38.36;101843.53;4973013;28;20051;-71
2021/05/31 10:48:15;;;;;;;3.55;1.85;;;;;;;27.63;38.69;101847.19;4990752;23;20054;-74
2021/05/31 10:50:47;;;;;;;5.75;1.90;;;;;;;27.65;39.29;101833.69;4971576;28;20042;-73
2021/05/31 10:53:18;;;;;;;2.38;1.75;;;;;;;27.88;35.62;101836.09;4977071;28;20038;-75
2021/05/31 10:56:02;;;;;;;2.00;1.65;;;;;;;27.42;35.45;101837.56;4969093;28;20042;-73
2021/05/31 10:58:59;;;;;;;2.63;1.85;;;;;;;27.54;36.80;101838.78;4965097;28;20042;-73
2021/05/31 11:01:27;;;;;;;2.03;1.63;;;;;;;27.60;36.20;101828.72;4968809;28;20122;-74
2021/05/31 11:03:59;;;;;;;3.92;2.00;;;;;;;27.71;37.78;101831.13;4967052;28;20036;-73
2021/05/31 11:06:26;;;;;;;4.05;1.88;;;;;;;27.76;35.77;101831.34;4970499;28;20042;-74
2021/05/31 11:08:53;;;;;;;2.25;1.92;;;;;;;27.95;37.48;101821.28;4952589;28;20065;-73
2021/05/31 11:11:27;;;;;;;2.55;1.83;;;;;;;27.98;36.10;101829.47;4968725;28;20062;-74
2021/05/31 11:13:53;;;;;;;5.22;1.70;;;;;;;27.88;36.63;101829.78;4968594;28;20041;-73
2021/05/31 11:16:19;;;;;;;2.50;1.90;;;;;;;28.06;37.55;101828.03;4967267;28;21401;-75
2021/05/31 11:18:46;;;;;;;2.95;1.70;;;;;;;28.33;34.98;101831.06;4948407;28;20038;-73
2021/05/31 11:21:37;;;;;;;2.63;1.70;;;;;;;28.25;36.43;101829.75;4949330;28;20027;-73
2021/05/31 11:24:06;;;;;;;2.20;1.67;;;;;;;28.27;37.51;101821.75;4965646;28;20053;-73
2021/05/31 11:26:34;;;;;;;2.42;2.08;;;;;;;28.07;36.24;101820.47;4967247;28;20042;-73
2021/05/31 11:29:01;;;;;;;1.70;1.60;;;;;;;28.13;37.13;101827.00;4967457;28;20054;-74
2021/05/31 11:31:27;;;;;;;2.42;1.60;;;;;;;28.11;35.37;101819.13;4969568;28;20089;-73
2021/05/31 11:33:54;;;;;;;3.28;2.00;;;;;;;28.19;36.67;101822.44;4969942;28;20035;-73
2021/05/31 11:36:37;;;;;;;4.53;1.98;;;;;;;28.16;35.96;101828.88;4967571;28;20122;-73
2021/05/31 11:39:06;;;;;;;4.97;1.70;;;;;;;28.24;35.37;101808.03;4965972;28;20031;-74
2021/05/31 11:41:53;;;;;;;7.50;2.10;;;;;;;28.29;36.34;101811.00;4970164;28;20103;-75
2021/05/31 11:44:30;;;;;;;3.78;2.00;;;;;;;28.18;35.85;101810.59;4966001;28;20070;-73
2021/05/31 11:46:58;;;;;;;4.95;2.00;;;;;;;28.16;36.12;101810.28;4965797;28;20436;-73